FAMM/MBD METAR and TAF weather

Enter ICAO airport designator
Station Type Date Time Source
FAMM METAR 2019/06/18 17:00 UTC NOAA

FAMM 181700Z 13006KT CAVOK 13/M01 Q1029 NOSIG


Station Type Date Time Source
FAMM Decoded METAR 2019/06/18 17:00 UTC NOAA

Mafikeng Intl. Ad, South Africa (FAMM) 25-47S 025-32E 1300M
Jun 18, 2019 - 01:00 PM EDT / 2019.06.18 1700 UTC
Wind: from the SE (130 degrees) at 7 MPH (6 KT):0
Visibility: greater than 7 mile(s):0
Temperature: 55 F (13 C)
Dew Point: 30 F (-1 C)
Relative Humidity: 37%
Pressure (altimeter): 30.39 in. Hg (1029 hPa)
ob: FAMM 181700Z 13006KT CAVOK 13/M01 Q1029 NOSIG
cycle: 17

Station Type Date Time Source
FAMM TAF 2019/01/01 10:00 UTC NOAA

TAF FAMM 010900Z 0110/0118 04008KT 9999 BKN015
BECMG 0111/0113 34010KT BKN025 TX25/0113Z TN22/0118Z

Example: see airport list